Time;durP1;ratioP1;P1;durP2;ratioP2;P2;SDS_P1;SDS_P2;PMS_P1;PMS_P2;Temp;Humidity;BMP_temperature;BMP_pressure;BME280_temperature;BME280_humidity;BME280_pressure;Samples;Min_cycle;Max_cycle;Signal;HPM_P1;HPM_P2
2021/07/23 00:00:36;;;;;;;8.05;7.25;;;;;;;;;;2049324;29;20174;-52
2021/07/23 00:01:36;;;;;;;7.63;6.82;;;;;;;;;;2048826;28;20214;-54
2021/07/23 00:02:37;;;;;;;8.25;7.43;;;;;;;;;;2049863;29;20206;-55
2021/07/23 00:03:37;;;;;;;8.07;7.28;;;;;;;;;;2050410;29;20190;-52
2021/07/23 00:04:38;;;;;;;8.38;7.55;;;;;;;;;;2050920;29;20206;-50
2021/07/23 00:05:38;;;;;;;9.27;7.63;;;;;;;;;;2050628;29;20170;-52
2021/07/23 00:06:38;;;;;;;8.88;7.03;;;;;;;;;;2050799;29;20199;-53
2021/07/23 00:07:38;;;;;;;8.60;7.57;;;;;;;;;;2050800;29;20185;-53
2021/07/23 00:08:39;;;;;;;12.32;7.28;;;;;;;;;;2050475;29;20728;-52
2021/07/23 00:09:39;;;;;;;8.68;7.80;;;;;;;;;;2050794;29;20274;-53
2021/07/23 00:10:39;;;;;;;10.70;7.85;;;;;;;;;;2050655;29;20175;-49
2021/07/23 00:11:39;;;;;;;7.82;7.03;;;;;;;;;;2050785;28;20711;-50
2021/07/23 00:12:40;;;;;;;8.63;7.80;;;;;;;;;;2050870;29;20171;-53
2021/07/23 00:13:40;;;;;;;8.57;7.72;;;;;;;;;;2049663;28;20209;-49
2021/07/23 00:14:40;;;;;;;8.65;7.72;;;;;;;;;;2049719;28;20182;-54
2021/07/23 00:15:40;;;;;;;8.32;7.55;;;;;;;;;;2050806;28;20171;-54
2021/07/23 00:16:40;;;;;;;11.35;8.13;;;;;;;;;;2059760;28;20634;-58
2021/07/23 00:17:41;;;;;;;10.00;7.78;;;;;;;;;;2052202;28;20175;-55
2021/07/23 00:18:41;;;;;;;10.52;8.13;;;;;;;;;;2058066;28;20219;-58
2021/07/23 00:19:41;;;;;;;9.63;8.02;;;;;;;;;;2057330;28;20179;-57
2021/07/23 00:20:41;;;;;;;8.85;8.05;;;;;;;;;;2051453;28;20931;-56
2021/07/23 00:21:42;;;;;;;9.70;8.68;;;;;;;;;;2049964;28;20205;-51
2021/07/23 00:22:42;;;;;;;9.30;8.27;;;;;;;;;;2050115;28;20171;-50
2021/07/23 00:23:42;;;;;;;9.57;7.68;;;;;;;;;;2052992;28;20226;-49
2021/07/23 00:24:43;;;;;;;9.88;8.48;;;;;;;;;;2051315;28;20175;-50
2021/07/23 00:25:43;;;;;;;9.48;8.73;;;;;;;;;;2055602;28;20679;-54
2021/07/23 00:26:50;;;;;;;8.65;7.78;;;;;;;;;;2058144;28;20182;-52
2021/07/23 00:27:51;;;;;;;9.18;8.35;;;;;;;;;;2057112;28;20253;-52
2021/07/23 00:28:51;;;;;;;9.55;8.65;;;;;;;;;;2053015;28;20175;-54
2021/07/23 00:29:51;;;;;;;9.52;8.50;;;;;;;;;;2055846;28;20174;-54
2021/07/23 00:30:52;;;;;;;9.43;8.63;;;;;;;;;;2051055;28;20628;-49
2021/07/23 00:31:52;;;;;;;10.23;9.25;;;;;;;;;;2052118;28;20210;-51
2021/07/23 00:32:52;;;;;;;9.98;8.95;;;;;;;;;;2056920;28;20181;-54
2021/07/23 00:33:53;;;;;;;10.70;9.30;;;;;;;;;;2051496;28;20167;-54
2021/07/23 00:34:53;;;;;;;9.15;8.35;;;;;;;;;;2057106;28;20185;-56
2021/07/23 00:35:54;;;;;;;10.88;9.73;;;;;;;;;;2053909;28;20178;-54
2021/07/23 00:36:54;;;;;;;11.05;9.93;;;;;;;;;;2051331;28;20175;-52
2021/07/23 00:37:55;;;;;;;11.25;9.73;;;;;;;;;;2053139;28;20329;-54
2021/07/23 00:38:55;;;;;;;10.15;9.23;;;;;;;;;;2050103;28;20175;-55
2021/07/23 00:39:56;;;;;;;11.73;10.52;;;;;;;;;;2053394;28;20179;-55
2021/07/23 00:40:56;;;;;;;12.25;9.98;;;;;;;;;;2043173;28;20198;-53
2021/07/23 00:41:57;;;;;;;12.77;9.45;;;;;;;;;;2041027;29;20176;-54
2021/07/23 00:42:57;;;;;;;12.25;9.77;;;;;;;;;;2048438;29;20203;-54
2021/07/23 00:43:57;;;;;;;13.93;10.45;;;;;;;;;;2043740;29;20247;-55
2021/07/23 00:44:58;;;;;;;15.43;9.88;;;;;;;;;;2041676;29;20186;-54
2021/07/23 00:45:58;;;;;;;11.48;10.02;;;;;;;;;;2039869;29;20195;-53
2021/07/23 00:46:59;;;;;;;10.80;9.70;;;;;;;;;;2043707;29;20248;-55
2021/07/23 00:48:02;;;;;;;11.18;9.77;;;;;;;;;;2055622;28;20174;-53
2021/07/23 00:49:05;;;;;;;13.63;10.00;;;;;;;;;;2049670;28;20179;-55
2021/07/23 00:50:06;;;;;;;12.07;9.45;;;;;;;;;;2041432;29;20219;-54
2021/07/23 00:51:06;;;;;;;13.95;9.30;;;;;;;;;;2025728;29;20237;-49
2021/07/23 00:52:06;;;;;;;11.02;8.43;;;;;;;;;;2046160;28;20174;-50
2021/07/23 00:53:08;;;;;;;10.90;9.25;;;;;;;;;;2049686;28;20203;-52
2021/07/23 00:54:11;;;;;;;10.23;8.55;;;;;;;;;;2046472;29;20306;-56
2021/07/23 00:55:12;;;;;;;10.95;9.15;;;;;;;;;;2041897;29;20171;-55
2021/07/23 00:56:14;;;;;;;9.55;8.65;;;;;;;;;;2041524;29;20618;-53
2021/07/23 00:57:15;;;;;;;11.30;8.98;;;;;;;;;;2043626;29;20269;-53
2021/07/23 00:58:15;;;;;;;10.20;9.10;;;;;;;;;;2044111;29;20789;-54
2021/07/23 00:59:16;;;;;;;9.95;9.05;;;;;;;;;;2049672;28;20190;-52
2021/07/23 01:00:17;;;;;;;13.25;9.35;;;;;;;;;;2054037;28;20221;-54
2021/07/23 01:01:30;;;;;;;10.05;9.05;;;;;;;;;;2051099;28;20285;-52
2021/07/23 01:02:30;;;;;;;11.27;9.13;;;;;;;;;;2043700;29;20191;-53
2021/07/23 01:03:31;;;;;;;10.68;9.55;;;;;;;;;;2043729;29;20172;-52
2021/07/23 01:04:32;;;;;;;10.43;9.38;;;;;;;;;;2048333;28;20191;-54
2021/07/23 01:05:34;;;;;;;11.43;10.27;;;;;;;;;;2047764;28;20190;-52
2021/07/23 01:06:38;;;;;;;11.20;10.10;;;;;;;;;;2049206;28;20186;-54
2021/07/23 01:07:42;;;;;;;13.15;9.65;;;;;;;;;;2048300;28;20558;-55
2021/07/23 01:08:45;;;;;;;12.88;9.18;;;;;;;;;;2049973;28;20245;-57
2021/07/23 01:09:48;;;;;;;13.88;9.98;;;;;;;;;;2049733;28;20652;-52
2021/07/23 01:11:11;;;;;;;11.15;10.18;;;;;;;;;;2052185;28;20297;-52
2021/07/23 01:12:14;;;;;;;12.20;10.85;;;;;;;;;;2058601;28;20177;-55
2021/07/23 01:13:16;;;;;;;11.45;10.30;;;;;;;;;;2055701;28;20289;-53
2021/07/23 01:14:18;;;;;;;10.90;10.00;;;;;;;;;;2050435;29;20178;-55
2021/07/23 01:15:18;;;;;;;10.77;9.77;;;;;;;;;;2049777;29;20175;-49
2021/07/23 01:16:19;;;;;;;11.43;10.05;;;;;;;;;;2050331;29;20171;-53
2021/07/23 01:17:19;;;;;;;10.65;9.70;;;;;;;;;;2050136;29;20171;-54
2021/07/23 01:18:22;;;;;;;12.40;9.73;;;;;;;;;;2050855;29;20183;-56
2021/07/23 01:19:34;;;;;;;11.45;10.00;;;;;;;;;;2050634;29;20297;-50
2021/07/23 01:20:34;;;;;;;11.77;9.75;;;;;;;;;;2040500;29;20217;-54
2021/07/23 01:21:36;;;;;;;10.65;9.60;;;;;;;;;;2040889;29;20191;-52
2021/07/23 01:22:40;;;;;;;12.80;10.23;;;;;;;;;;2040744;29;20710;-55
2021/07/23 01:23:43;;;;;;;11.55;10.45;;;;;;;;;;2041230;29;20179;-53
2021/07/23 01:25:13;;;;;;;11.20;9.30;;;;;;;;;;2041415;28;20668;-53
2021/07/23 01:26:14;;;;;;;12.23;9.32;;;;;;;;;;2042644;29;20191;-53
2021/07/23 01:27:16;;;;;;;12.50;9.68;;;;;;;;;;2045383;28;20338;-52
2021/07/23 01:28:32;;;;;;;10.52;9.40;;;;;;;;;;2052719;28;20183;-50
2021/07/23 01:29:38;;;;;;;10.18;9.27;;;;;;;;;;2055316;28;20174;-51
2021/07/23 01:30:38;;;;;;;10.13;9.18;;;;;;;;;;2056026;28;20189;-50
2021/07/23 01:31:47;;;;;;;11.30;10.32;;;;;;;;;;2049311;28;20258;-49
2021/07/23 01:32:49;;;;;;;12.65;9.48;;;;;;;;;;2048195;29;20167;-53
2021/07/23 01:33:49;;;;;;;11.70;10.50;;;;;;;;;;2041360;29;20216;-53
2021/07/23 01:34:49;;;;;;;11.27;10.20;;;;;;;;;;2052814;28;20171;-53
2021/07/23 01:35:49;;;;;;;10.90;9.52;;;;;;;;;;2052556;28;20738;-54
2021/07/23 01:36:50;;;;;;;13.48;10.23;;;;;;;;;;2055797;28;20207;-54
2021/07/23 01:37:52;;;;;;;10.77;9.55;;;;;;;;;;2037218;29;20259;-54
2021/07/23 01:38:56;;;;;;;10.85;9.75;;;;;;;;;;2043287;28;20171;-52
2021/07/23 01:39:59;;;;;;;16.00;10.27;;;;;;;;;;2053592;28;20179;-53
2021/07/23 01:40:59;;;;;;;10.40;9.50;;;;;;;;;;2054384;28;20185;-53
2021/07/23 01:42:01;;;;;;;11.52;10.10;;;;;;;;;;2048077;28;20184;-54
2021/07/23 01:43:02;;;;;;;13.10;10.10;;;;;;;;;;2054401;28;20177;-50
2021/07/23 01:44:03;;;;;;;10.73;9.70;;;;;;;;;;2039208;29;20684;-51
2021/07/23 01:45:04;;;;;;;11.05;9.75;;;;;;;;;;2046061;29;20250;-53
2021/07/23 01:46:04;;;;;;;15.68;10.48;;;;;;;;;;2048227;28;20186;-50
2021/07/23 01:47:16;;;;;;;11.95;9.15;;;;;;;;;;2051771;28;20265;-51
2021/07/23 01:48:17;;;;;;;11.63;9.95;;;;;;;;;;2053931;28;20174;-54
2021/07/23 01:49:17;;;;;;;11.80;10.60;;;;;;;;;;2052676;28;20171;-49
2021/07/23 01:50:18;;;;;;;10.40;9.40;;;;;;;;;;2052782;28;20179;-54
2021/07/23 01:51:18;;;;;;;12.77;9.82;;;;;;;;;;2051014;28;20581;-52
2021/07/23 01:52:21;;;;;;;11.75;10.55;;;;;;;;;;2053618;28;20185;-53
2021/07/23 01:53:22;;;;;;;11.05;9.98;;;;;;;;;;2044567;29;20289;-48
2021/07/23 01:54:33;;;;;;;11.07;9.95;;;;;;;;;;2040188;29;20182;-53
2021/07/23 01:55:34;;;;;;;11.13;10.02;;;;;;;;;;2047005;29;20203;-52
2021/07/23 01:56:34;;;;;;;9.68;8.73;;;;;;;;;;2049636;28;20687;-48
2021/07/23 01:57:42;;;;;;;10.48;8.80;;;;;;;;;;2055892;28;20173;-52
2021/07/23 01:58:43;;;;;;;9.98;9.02;;;;;;;;;;2048001;28;20182;-51
2021/07/23 01:59:44;;;;;;;9.90;9.00;;;;;;;;;;2057089;28;20181;-51
2021/07/23 02:00:44;;;;;;;10.35;9.43;;;;;;;;;;2042665;28;20182;-51
2021/07/23 02:01:49;;;;;;;11.52;10.18;;;;;;;;;;2055287;28;20608;-47
2021/07/23 02:03:00;;;;;;;12.90;9.52;;;;;;;;;;2050542;28;20592;-54
2021/07/23 02:04:08;;;;;;;11.40;10.30;;;;;;;;;;2048198;28;20314;-51
2021/07/23 02:05:09;;;;;;;11.90;10.65;;;;;;;;;;2050110;28;20189;-52
2021/07/23 02:06:11;;;;;;;10.73;9.82;;;;;;;;;;2043764;29;20179;-51
2021/07/23 02:07:11;;;;;;;10.93;9.82;;;;;;;;;;2045003;29;20254;-50
2021/07/23 02:08:13;;;;;;;11.55;10.45;;;;;;;;;;2052159;28;20271;-50
2021/07/23 02:09:13;;;;;;;14.95;10.25;;;;;;;;;;2051869;28;20836;-54
2021/07/23 02:10:23;;;;;;;14.10;10.98;;;;;;;;;;2050291;28;20196;-49
2021/07/23 02:11:24;;;;;;;11.50;10.25;;;;;;;;;;2053426;28;20284;-50
2021/07/23 02:12:25;;;;;;;12.38;11.18;;;;;;;;;;2050823;28;20190;-50
2021/07/23 02:13:37;;;;;;;12.02;10.57;;;;;;;;;;2042993;29;20202;-49
2021/07/23 02:14:37;;;;;;;12.80;11.15;;;;;;;;;;2042343;29;20182;-50
2021/07/23 02:15:38;;;;;;;12.52;11.27;;;;;;;;;;2047086;29;20175;-48
2021/07/23 02:16:41;;;;;;;11.90;10.68;;;;;;;;;;2040257;29;20187;-52
2021/07/23 02:17:41;;;;;;;13.10;10.55;;;;;;;;;;2056846;28;20178;-50
2021/07/23 02:18:50;;;;;;;11.88;10.68;;;;;;;;;;2039676;29;20171;-48
2021/07/23 02:20:08;;;;;;;10.80;9.75;;;;;;;;;;2047983;28;20179;-49
2021/07/23 02:21:11;;;;;;;10.77;9.70;;;;;;;;;;2052826;28;20221;-54
2021/07/23 02:22:11;;;;;;;10.98;9.88;;;;;;;;;;2051926;28;20182;-54
2021/07/23 02:23:11;;;;;;;12.25;10.85;;;;;;;;;;2054431;28;20205;-51
2021/07/23 02:24:17;;;;;;;11.52;10.52;;;;;;;;;;2050529;28;20182;-50
2021/07/23 02:25:18;;;;;;;13.32;10.48;;;;;;;;;;2051920;28;20228;-54
2021/07/23 02:26:19;;;;;;;12.73;11.00;;;;;;;;;;2052556;28;20427;-51
2021/07/23 02:27:21;;;;;;;12.73;10.77;;;;;;;;;;2050196;28;20183;-55
2021/07/23 02:28:28;;;;;;;11.90;10.75;;;;;;;;;;2053725;28;20239;-50
2021/07/23 02:29:30;;;;;;;12.25;11.15;;;;;;;;;;2049548;28;20179;-49
2021/07/23 02:30:31;;;;;;;12.05;10.73;;;;;;;;;;2046243;29;20268;-54
2021/07/23 02:31:51;;;;;;;11.98;10.52;;;;;;;;;;2038193;28;20194;-53
2021/07/23 02:32:56;;;;;;;10.98;9.55;;;;;;;;;;2053924;28;20651;-52
2021/07/23 02:33:57;;;;;;;10.10;9.20;;;;;;;;;;2040274;29;20171;-50
2021/07/23 02:35:05;;;;;;;10.88;9.95;;;;;;;;;;2041682;29;20175;-52
2021/07/23 02:36:19;;;;;;;12.30;9.50;;;;;;;;;;2048717;28;20171;-58
2021/07/23 02:37:19;;;;;;;12.00;10.75;;;;;;;;;;2048138;28;20179;-47
2021/07/23 02:38:20;;;;;;;11.05;10.07;;;;;;;;;;2050817;28;20177;-53
2021/07/23 02:39:26;;;;;;;11.85;10.75;;;;;;;;;;2040187;29;20649;-49
2021/07/23 02:40:33;;;;;;;13.52;12.18;;;;;;;;;;2040807;29;20175;-48
2021/07/23 02:41:35;;;;;;;13.15;11.90;;;;;;;;;;2048890;28;20198;-49
2021/07/23 02:42:36;;;;;;;15.85;12.85;;;;;;;;;;2055345;28;20562;-50
2021/07/23 02:43:37;;;;;;;13.00;11.85;;;;;;;;;;2048857;28;20282;-52
2021/07/23 02:44:39;;;;;;;15.55;13.55;;;;;;;;;;2048771;28;20553;-51
2021/07/23 02:45:43;;;;;;;14.18;12.90;;;;;;;;;;2048018;28;20791;-53
2021/07/23 02:46:43;;;;;;;14.10;12.77;;;;;;;;;;2048198;28;20186;-48
2021/07/23 02:47:45;;;;;;;13.98;12.57;;;;;;;;;;2047708;28;20225;-48
2021/07/23 02:48:45;;;;;;;15.05;12.98;;;;;;;;;;2044313;28;20179;-51
2021/07/23 02:49:46;;;;;;;14.23;12.48;;;;;;;;;;2048723;28;20701;-49
2021/07/23 02:50:47;;;;;;;14.65;13.20;;;;;;;;;;2056660;28;20870;-59
2021/07/23 02:51:47;;;;;;;14.85;12.98;;;;;;;;;;2048657;28;20173;-48
2021/07/23 02:52:48;;;;;;;13.57;12.25;;;;;;;;;;2051361;28;20553;-50
2021/07/23 02:53:50;;;;;;;15.23;12.43;;;;;;;;;;2051811;28;20238;-49
2021/07/23 02:54:51;;;;;;;14.40;12.90;;;;;;;;;;2055095;28;20209;-49
2021/07/23 02:55:52;;;;;;;14.20;12.80;;;;;;;;;;2048924;28;20191;-50
2021/07/23 02:56:53;;;;;;;14.65;13.40;;;;;;;;;;2055791;28;20690;-51
2021/07/23 02:57:54;;;;;;;12.82;11.63;;;;;;;;;;2049233;28;20250;-52
2021/07/23 02:58:58;;;;;;;12.90;11.70;;;;;;;;;;2050276;28;20644;-51
2021/07/23 03:00:00;;;;;;;13.43;11.88;;;;;;;;;;2046061;29;20178;-54
2021/07/23 03:01:03;;;;;;;12.48;11.27;;;;;;;;;;2041828;28;20179;-56
2021/07/23 03:02:03;;;;;;;13.50;11.60;;;;;;;;;;2053104;28;20199;-55
2021/07/23 03:03:05;;;;;;;13.20;11.82;;;;;;;;;;2053298;28;20274;-54
2021/07/23 03:04:05;;;;;;;14.10;12.00;;;;;;;;;;2050409;28;20229;-56
2021/07/23 03:05:13;;;;;;;13.32;11.70;;;;;;;;;;2051592;28;20181;-47
2021/07/23 03:06:14;;;;;;;13.98;12.63;;;;;;;;;;2042573;29;20719;-53
2021/07/23 03:07:16;;;;;;;13.43;11.35;;;;;;;;;;2043801;28;20217;-55
2021/07/23 03:08:17;;;;;;;14.73;12.43;;;;;;;;;;2051041;28;20206;-52
2021/07/23 03:09:27;;;;;;;14.45;12.70;;;;;;;;;;2051080;28;20668;-54
2021/07/23 03:10:30;;;;;;;14.63;13.13;;;;;;;;;;2054526;28;20313;-53
2021/07/23 03:11:32;;;;;;;15.63;12.63;;;;;;;;;;2037210;29;20196;-51
2021/07/23 03:12:39;;;;;;;14.32;12.82;;;;;;;;;;2047924;28;20193;-48
2021/07/23 03:13:41;;;;;;;13.43;12.02;;;;;;;;;;2047344;28;20210;-52
2021/07/23 03:14:42;;;;;;;14.50;12.40;;;;;;;;;;2055524;28;20182;-49
2021/07/23 03:15:50;;;;;;;13.70;12.40;;;;;;;;;;2048996;28;20179;-49
2021/07/23 03:16:54;;;;;;;13.13;11.75;;;;;;;;;;2047014;29;20175;-49
2021/07/23 03:17:55;;;;;;;12.02;10.93;;;;;;;;;;2041330;28;20182;-48
2021/07/23 03:18:56;;;;;;;11.93;10.73;;;;;;;;;;2039055;29;20215;-48
2021/07/23 03:19:57;;;;;;;12.68;11.38;;;;;;;;;;2033794;29;20180;-48
2021/07/23 03:20:59;;;;;;;15.02;12.20;;;;;;;;;;2043306;28;20172;-54
2021/07/23 03:21:59;;;;;;;12.43;11.25;;;;;;;;;;2043939;28;20204;-54
2021/07/23 03:23:05;;;;;;;12.70;11.50;;;;;;;;;;2053084;28;20190;-53
2021/07/23 03:24:35;;;;;;;15.23;12.00;;;;;;;;;;2043889;28;20275;-53
2021/07/23 03:25:36;;;;;;;13.93;11.60;;;;;;;;;;2050658;29;20171;-54
2021/07/23 03:26:37;;;;;;;12.90;11.45;;;;;;;;;;2041015;29;20549;-58
2021/07/23 03:27:42;;;;;;;11.75;10.65;;;;;;;;;;2054093;28;20552;-57
2021/07/23 03:28:58;;;;;;;12.43;11.10;;;;;;;;;;2047236;29;20253;-50
2021/07/23 03:30:04;;;;;;;12.18;11.02;;;;;;;;;;2050720;28;20231;-51
2021/07/23 03:31:14;;;;;;;11.40;10.40;;;;;;;;;;2043957;29;20200;-51
2021/07/23 03:32:17;;;;;;;11.48;9.90;;;;;;;;;;2045907;28;20217;-49
2021/07/23 03:33:18;;;;;;;11.68;10.57;;;;;;;;;;2054159;28;20582;-50
2021/07/23 03:34:19;;;;;;;12.40;9.77;;;;;;;;;;2047364;29;20183;-50
2021/07/23 03:35:28;;;;;;;11.48;10.48;;;;;;;;;;2049144;29;20155;-48
2021/07/23 03:36:31;;;;;;;11.93;10.30;;;;;;;;;;2048042;28;20214;-50
2021/07/23 03:37:32;;;;;;;11.30;10.25;;;;;;;;;;2042414;29;20198;-48
2021/07/23 03:38:36;;;;;;;10.85;9.90;;;;;;;;;;2049625;29;20175;-50
2021/07/23 03:39:37;;;;;;;11.02;9.93;;;;;;;;;;2050717;29;20718;-51
2021/07/23 03:40:38;;;;;;;11.52;10.32;;;;;;;;;;2057850;28;20186;-51
2021/07/23 03:41:48;;;;;;;12.82;10.88;;;;;;;;;;2056612;28;20625;-51
2021/07/23 03:42:53;;;;;;;11.55;10.45;;;;;;;;;;2050505;29;20183;-50
2021/07/23 03:43:56;;;;;;;11.80;9.73;;;;;;;;;;2041767;29;20176;-54
2021/07/23 03:45:03;;;;;;;13.38;10.20;;;;;;;;;;2042708;29;20185;-53
2021/07/23 03:46:04;;;;;;;11.02;9.45;;;;;;;;;;2041926;29;20168;-54
2021/07/23 03:47:08;;;;;;;11.43;10.40;;;;;;;;;;2034420;29;20653;-47
2021/07/23 03:48:09;;;;;;;11.52;9.98;;;;;;;;;;2033232;29;20184;-50
2021/07/23 03:49:14;;;;;;;13.45;10.77;;;;;;;;;;2046216;28;20635;-52
2021/07/23 03:50:19;;;;;;;12.63;10.23;;;;;;;;;;2045222;29;20183;-53
2021/07/23 03:51:29;;;;;;;14.77;10.38;;;;;;;;;;2048086;28;20338;-49
2021/07/23 03:52:30;;;;;;;11.52;10.40;;;;;;;;;;2051445;28;20182;-51
2021/07/23 03:53:49;;;;;;;10.43;9.20;;;;;;;;;;2049400;28;20190;-51
2021/07/23 03:54:58;;;;;;;10.73;9.63;;;;;;;;;;2051261;28;20156;-52
2021/07/23 03:56:03;;;;;;;10.95;9.88;;;;;;;;;;2057050;28;20191;-54
2021/07/23 03:57:17;;;;;;;11.15;10.13;;;;;;;;;;2053137;28;20166;-53
2021/07/23 03:58:17;;;;;;;11.63;10.43;;;;;;;;;;2052241;28;20186;-56
2021/07/23 03:59:19;;;;;;;12.38;10.93;;;;;;;;;;2053643;28;20186;-52
2021/07/23 04:00:24;;;;;;;11.95;10.75;;;;;;;;;;2044343;29;20198;-50
2021/07/23 04:02:58;;;;;;;13.40;11.85;;;;;;;;;;2046951;28;20199;-52
2021/07/23 04:04:01;;;;;;;12.43;11.27;;;;;;;;;;2054642;28;20175;-52
2021/07/23 04:05:02;;;;;;;13.13;11.82;;;;;;;;;;2045686;29;20173;-52
2021/07/23 04:06:02;;;;;;;12.60;11.35;;;;;;;;;;2059051;28;20271;-52
2021/07/23 04:07:03;;;;;;;12.85;11.65;;;;;;;;;;2054224;28;20423;-52
2021/07/23 04:08:04;;;;;;;13.68;12.43;;;;;;;;;;2056773;28;20211;-52
2021/07/23 04:09:07;;;;;;;14.05;12.07;;;;;;;;;;2057584;28;20175;-52
2021/07/23 04:10:07;;;;;;;13.73;12.35;;;;;;;;;;2054940;28;20170;-51
2021/07/23 04:11:23;;;;;;;13.38;12.13;;;;;;;;;;2055715;28;20182;-53
2021/07/23 04:12:24;;;;;;;12.77;11.18;;;;;;;;;;2054988;28;20197;-53
2021/07/23 04:13:24;;;;;;;14.55;12.30;;;;;;;;;;2051192;28;20202;-50
2021/07/23 04:14:25;;;;;;;11.88;10.68;;;;;;;;;;2047255;29;20215;-52
2021/07/23 04:15:27;;;;;;;13.25;11.77;;;;;;;;;;2043165;29;20175;-52
2021/07/23 04:16:44;;;;;;;13.27;11.45;;;;;;;;;;2048459;28;20742;-54
2021/07/23 04:17:45;;;;;;;11.65;10.65;;;;;;;;;;2052530;28;20172;-53
2021/07/23 04:18:45;;;;;;;12.15;10.82;;;;;;;;;;2058502;28;20583;-56
2021/07/23 04:19:58;;;;;;;11.65;10.48;;;;;;;;;;2048060;28;20183;-53
2021/07/23 04:21:02;;;;;;;11.90;10.50;;;;;;;;;;2052015;29;20238;-53
2021/07/23 04:22:02;;;;;;;11.45;10.32;;;;;;;;;;2042549;29;20259;-55
2021/07/23 04:23:17;;;;;;;10.57;9.68;;;;;;;;;;2057383;28;20237;-53
2021/07/23 04:24:18;;;;;;;11.75;10.02;;;;;;;;;;2052857;28;20187;-55
2021/07/23 04:25:19;;;;;;;12.60;10.43;;;;;;;;;;2049874;28;20678;-56
2021/07/23 04:26:19;;;;;;;10.70;9.68;;;;;;;;;;2049044;28;20668;-53
2021/07/23 04:27:20;;;;;;;13.70;9.93;;;;;;;;;;2042465;29;20218;-55
2021/07/23 04:28:38;;;;;;;11.65;9.48;;;;;;;;;;2046426;29;20183;-54
2021/07/23 04:29:40;;;;;;;10.52;9.45;;;;;;;;;;2056743;28;20694;-53
2021/07/23 04:30:41;;;;;;;11.00;10.00;;;;;;;;;;2049171;28;20179;-54
2021/07/23 04:31:54;;;;;;;10.35;9.35;;;;;;;;;;2027991;29;20204;-54
2021/07/23 04:32:55;;;;;;;11.00;9.90;;;;;;;;;;2037968;29;20211;-53
2021/07/23 04:33:56;;;;;;;12.35;9.82;;;;;;;;;;2043153;29;20668;-53
2021/07/23 04:35:05;;;;;;;11.40;10.32;;;;;;;;;;2047613;29;20591;-53
2021/07/23 04:36:06;;;;;;;11.75;10.50;;;;;;;;;;2041943;29;20171;-54
2021/07/23 04:37:07;;;;;;;11.80;10.70;;;;;;;;;;2042302;29;20948;-54
2021/07/23 04:38:32;;;;;;;10.13;9.23;;;;;;;;;;2047373;28;20668;-52
2021/07/23 04:39:34;;;;;;;10.25;9.35;;;;;;;;;;2042622;29;20187;-55
2021/07/23 04:40:39;;;;;;;12.13;10.45;;;;;;;;;;2057464;28;20183;-52
2021/07/23 04:41:44;;;;;;;9.80;8.80;;;;;;;;;;2049668;28;20179;-55
2021/07/23 04:42:45;;;;;;;12.05;9.18;;;;;;;;;;2056993;28;20587;-54
2021/07/23 04:43:45;;;;;;;10.73;9.80;;;;;;;;;;2038735;29;20180;-56
2021/07/23 04:44:46;;;;;;;10.85;9.50;;;;;;;;;;2048800;29;20264;-53
2021/07/23 04:45:46;;;;;;;11.13;9.55;;;;;;;;;;2040101;29;20268;-56
2021/07/23 04:46:46;;;;;;;10.70;9.70;;;;;;;;;;2040926;29;20180;-55
2021/07/23 04:47:48;;;;;;;10.05;9.15;;;;;;;;;;2048965;28;20707;-56
2021/07/23 04:48:49;;;;;;;9.85;8.95;;;;;;;;;;2047314;28;20177;-57
2021/07/23 04:50:02;;;;;;;9.73;8.73;;;;;;;;;;2045563;29;20173;-53
2021/07/23 04:51:21;;;;;;;9.57;8.27;;;;;;;;;;2045305;29;20818;-55
2021/07/23 04:52:54;;;;;;;11.02;8.88;;;;;;;;;;2050599;28;20171;-55
2021/07/23 04:54:13;;;;;;;10.20;9.23;;;;;;;;;;2041903;28;20184;-55
2021/07/23 04:55:34;;;;;;;10.32;9.25;;;;;;;;;;2054047;28;20218;-53
2021/07/23 04:56:46;;;;;;;12.73;9.55;;;;;;;;;;2048384;28;20171;-55
2021/07/23 04:57:47;;;;;;;10.50;9.50;;;;;;;;;;2039950;28;20184;-56
2021/07/23 04:58:49;;;;;;;10.30;8.80;;;;;;;;;;2049658;28;20183;-56
2021/07/23 04:59:49;;;;;;;10.80;9.80;;;;;;;;;;2054692;28;20171;-55
2021/07/23 05:00:50;;;;;;;12.05;9.70;;;;;;;;;;2047120;28;20198;-55
2021/07/23 05:01:50;;;;;;;10.02;9.13;;;;;;;;;;2054219;28;20675;-55
2021/07/23 05:02:54;;;;;;;9.70;8.70;;;;;;;;;;2056907;28;20154;-53
2021/07/23 05:03:55;;;;;;;9.98;8.77;;;;;;;;;;2047366;28;20171;-56
2021/07/23 05:04:55;;;;;;;9.50;8.65;;;;;;;;;;2046781;29;20732;-54
2021/07/23 05:05:57;;;;;;;10.07;8.13;;;;;;;;;;2038896;29;20183;-55
2021/07/23 05:06:57;;;;;;;8.30;7.47;;;;;;;;;;2055240;28;20197;-56
2021/07/23 05:07:59;;;;;;;10.38;9.23;;;;;;;;;;2050810;28;20671;-54
2021/07/23 05:09:04;;;;;;;9.48;8.48;;;;;;;;;;2053824;28;20213;-57
2021/07/23 05:10:08;;;;;;;11.93;10.70;;;;;;;;;;2047692;28;20710;-58
2021/07/23 05:11:15;;;;;;;14.57;12.13;;;;;;;;;;2047159;28;20190;-52
2021/07/23 05:12:20;;;;;;;12.45;9.27;;;;;;;;;;2050381;28;20198;-58
2021/07/23 05:13:23;;;;;;;12.18;10.93;;;;;;;;;;2051142;28;20646;-53
2021/07/23 05:14:25;;;;;;;12.60;11.30;;;;;;;;;;2054410;28;20182;-56
2021/07/23 05:15:25;;;;;;;10.65;9.50;;;;;;;;;;2051273;28;20254;-55
2021/07/23 05:16:26;;;;;;;10.55;9.55;;;;;;;;;;2055188;28;20194;-56
2021/07/23 05:17:26;;;;;;;10.85;9.75;;;;;;;;;;2050851;28;20194;-56
2021/07/23 05:18:27;;;;;;;11.50;9.25;;;;;;;;;;2055349;28;20241;-57
2021/07/23 05:19:27;;;;;;;12.65;11.32;;;;;;;;;;2047925;28;20183;-56
2021/07/23 05:20:28;;;;;;;9.48;8.57;;;;;;;;;;2052844;28;20201;-57
2021/07/23 05:21:28;;;;;;;10.32;9.25;;;;;;;;;;2051256;28;20171;-58
2021/07/23 05:22:28;;;;;;;12.43;11.13;;;;;;;;;;2054741;28;20209;-56
2021/07/23 05:23:29;;;;;;;13.10;9.52;;;;;;;;;;2057284;28;20183;-53
2021/07/23 05:24:30;;;;;;;11.80;10.70;;;;;;;;;;2056974;28;20257;-54
2021/07/23 05:25:33;;;;;;;12.38;11.02;;;;;;;;;;2056703;28;20194;-56
2021/07/23 05:26:35;;;;;;;12.90;11.55;;;;;;;;;;2057223;28;20240;-56
2021/07/23 05:27:36;;;;;;;11.60;10.52;;;;;;;;;;2057647;28;20281;-56
2021/07/23 05:28:36;;;;;;;13.18;11.75;;;;;;;;;;2057758;28;20171;-55
2021/07/23 05:29:36;;;;;;;14.05;12.57;;;;;;;;;;2057600;28;20547;-59
2021/07/23 05:30:37;;;;;;;12.93;11.73;;;;;;;;;;2052694;28;20694;-54
2021/07/23 05:31:41;;;;;;;14.82;12.15;;;;;;;;;;2049115;29;20181;-53
2021/07/23 05:32:41;;;;;;;13.52;12.13;;;;;;;;;;2048747;28;20573;-56
2021/07/23 05:33:41;;;;;;;13.07;11.73;;;;;;;;;;2048476;29;20293;-56
2021/07/23 05:34:42;;;;;;;13.38;11.35;;;;;;;;;;2049067;29;20171;-57
2021/07/23 05:35:42;;;;;;;12.32;11.02;;;;;;;;;;2049457;29;20186;-55
2021/07/23 05:36:42;;;;;;;13.82;12.02;;;;;;;;;;2049668;28;20202;-52
2021/07/23 05:37:42;;;;;;;14.77;10.82;;;;;;;;;;2049588;29;20712;-56
2021/07/23 05:38:42;;;;;;;15.02;11.23;;;;;;;;;;2049717;29;20210;-58
2021/07/23 05:39:43;;;;;;;13.77;12.43;;;;;;;;;;2048641;29;20230;-56
2021/07/23 05:40:43;;;;;;;11.07;10.07;;;;;;;;;;2046800;29;20223;-56
2021/07/23 05:41:43;;;;;;;13.10;9.98;;;;;;;;;;2047474;28;20175;-56
2021/07/23 05:42:43;;;;;;;12.38;10.45;;;;;;;;;;2049464;29;20195;-60
2021/07/23 05:43:44;;;;;;;12.85;10.60;;;;;;;;;;2038945;29;20192;-59
2021/07/23 05:44:44;;;;;;;11.95;10.77;;;;;;;;;;2032928;29;20172;-59
2021/07/23 05:45:44;;;;;;;11.10;9.35;;;;;;;;;;2040856;29;20183;-58
2021/07/23 05:46:44;;;;;;;11.35;10.20;;;;;;;;;;2049260;29;20175;-59
2021/07/23 05:47:45;;;;;;;11.82;8.95;;;;;;;;;;2049279;29;20183;-58
2021/07/23 05:48:45;;;;;;;8.98;8.00;;;;;;;;;;2048443;28;20179;-60
2021/07/23 05:49:45;;;;;;;10.40;9.05;;;;;;;;;;2045025;28;20179;-60
2021/07/23 05:50:45;;;;;;;10.15;8.82;;;;;;;;;;2048768;28;20179;-60
2021/07/23 05:51:46;;;;;;;10.32;9.25;;;;;;;;;;2048226;28;20179;-56
2021/07/23 05:52:46;;;;;;;10.35;8.40;;;;;;;;;;2048100;28;20655;-57
2021/07/23 05:53:46;;;;;;;8.23;7.35;;;;;;;;;;2050934;28;20210;-59
2021/07/23 05:54:46;;;;;;;10.02;8.32;;;;;;;;;;2046729;28;20176;-58
2021/07/23 05:55:47;;;;;;;11.15;8.30;;;;;;;;;;2050781;28;20183;-57
2021/07/23 05:56:47;;;;;;;9.98;8.38;;;;;;;;;;2049693;28;20183;-58
2021/07/23 05:57:47;;;;;;;9.68;7.65;;;;;;;;;;2050024;28;20184;-58
2021/07/23 05:58:48;;;;;;;8.93;8.07;;;;;;;;;;2049641;28;20183;-56
2021/07/23 05:59:48;;;;;;;11.95;8.32;;;;;;;;;;2048614;28;20184;-55
2021/07/23 06:00:48;;;;;;;8.57;7.88;;;;;;;;;;2048300;28;20171;-59
2021/07/23 06:01:49;;;;;;;9.15;8.25;;;;;;;;;;2047317;28;20202;-58
2021/07/23 06:02:49;;;;;;;9.52;8.63;;;;;;;;;;2048589;28;20249;-59
2021/07/23 06:03:49;;;;;;;8.32;7.47;;;;;;;;;;2043419;28;20187;-57
2021/07/23 06:04:49;;;;;;;8.60;7.82;;;;;;;;;;2040817;29;20183;-60
2021/07/23 06:05:50;;;;;;;8.65;7.95;;;;;;;;;;2049016;28;20600;-56
2021/07/23 06:06:50;;;;;;;8.95;7.78;;;;;;;;;;2049373;28;20259;-56
2021/07/23 06:07:50;;;;;;;8.43;7.72;;;;;;;;;;2041130;29;20275;-55
2021/07/23 06:08:51;;;;;;;8.60;7.53;;;;;;;;;;2041603;29;20195;-59
2021/07/23 06:09:51;;;;;;;10.95;8.35;;;;;;;;;;2049448;28;20205;-59
2021/07/23 06:10:51;;;;;;;10.38;8.40;;;;;;;;;;2042907;29;20176;-61
2021/07/23 06:11:51;;;;;;;7.88;6.78;;;;;;;;;;2040241;29;20188;-57